Time;durP1;ratioP1;P1;durP2;ratioP2;P2;SDS_P1;SDS_P2;PMS_P1;PMS_P2;Temp;Humidity;BMP_temperature;BMP_pressure;BME280_temperature;BME280_humidity;BME280_pressure;Samples;Min_cycle;Max_cycle;Signal;HPM_P1;HPM_P2
2021/07/08 00:01:53;;;;;;;16.60;8.00;;;;;;;21.98;52.17;100350.75;4788407;29;20058;-60
2021/07/08 00:04:19;;;;;;;14.85;7.05;;;;;;;21.98;52.03;100354.38;4772114;29;20059;-58
2021/07/08 00:06:45;;;;;;;13.23;7.43;;;;;;;21.95;52.07;100356.28;4788154;29;20574;-60
2021/07/08 00:09:15;;;;;;;16.48;7.63;;;;;;;21.96;52.01;100357.13;4788542;30;20071;-60
2021/07/08 00:11:41;;;;;;;13.50;7.65;;;;;;;21.96;51.84;100360.63;4783465;29;20200;-58
2021/07/08 00:14:07;;;;;;;16.92;8.10;;;;;;;22.00;51.93;100360.38;4754344;30;20525;-59
2021/07/08 00:16:35;;;;;;;13.63;7.97;;;;;;;22.01;51.77;100356.78;4769286;30;20067;-59
2021/07/08 00:19:01;;;;;;;14.13;7.03;;;;;;;22.04;51.63;100361.84;4769967;30;20056;-63
2021/07/08 00:21:27;;;;;;;13.30;7.45;;;;;;;22.03;51.54;100365.47;4753979;30;20051;-59
2021/07/08 00:23:53;;;;;;;22.00;7.78;;;;;;;22.00;51.73;100366.53;4769944;30;20105;-59
2021/07/08 00:26:19;;;;;;;16.83;8.60;;;;;;;21.99;51.70;100359.53;4770237;30;20055;-59
2021/07/08 00:28:45;;;;;;;14.70;8.25;;;;;;;21.99;51.70;100362.19;4769923;30;20526;-59
2021/07/08 00:31:11;;;;;;;17.98;8.65;;;;;;;21.99;51.75;100370.13;4769878;30;20048;-59
2021/07/08 00:33:37;;;;;;;18.83;8.50;;;;;;;21.94;51.96;100366.97;4769994;30;20054;-59
2021/07/08 00:36:03;;;;;;;15.93;8.25;;;;;;;21.89;52.64;100369.91;4770313;29;20047;-60
2021/07/08 00:38:29;;;;;;;12.23;7.35;;;;;;;21.83;53.03;100367.69;4769996;30;20047;-59
2021/07/08 00:40:55;;;;;;;11.98;6.95;;;;;;;21.75;53.62;100370.03;4769662;30;20134;-59
2021/07/08 00:43:21;;;;;;;10.95;6.03;;;;;;;21.76;52.88;100373.53;4769908;30;20146;-59
2021/07/08 00:45:46;;;;;;;15.07;6.75;;;;;;;21.75;52.95;100377.97;4769657;29;20121;-59
2021/07/08 00:48:12;;;;;;;17.00;7.47;;;;;;;21.71;53.97;100376.50;4753731;30;20144;-59
2021/07/08 00:50:43;;;;;;;14.65;6.95;;;;;;;21.68;53.78;100378.47;4769886;30;20071;-59
2021/07/08 00:53:11;;;;;;;14.32;6.55;;;;;;;21.63;53.61;100381.44;4753795;30;20051;-59
2021/07/08 00:55:37;;;;;;;11.77;6.00;;;;;;;21.58;54.32;100380.06;4769634;29;20085;-59
2021/07/08 00:58:04;;;;;;;13.60;6.35;;;;;;;21.54;54.46;100387.38;4769526;30;20100;-58
2021/07/08 01:00:33;;;;;;;9.30;6.07;;;;;;;21.50;54.46;100392.06;4768986;30;20109;-58
2021/07/08 01:02:59;;;;;;;13.65;6.57;;;;;;;21.45;55.07;100393.31;4769387;30;20524;-58
2021/07/08 01:05:31;;;;;;;13.27;6.57;;;;;;;21.40;55.04;100393.63;4769413;29;20083;-59
2021/07/08 01:07:57;;;;;;;15.85;6.57;;;;;;;21.37;55.15;100392.97;4767966;30;20530;-59
2021/07/08 01:10:24;;;;;;;11.15;6.20;;;;;;;21.29;55.98;100390.84;4769389;29;20043;-59
2021/07/08 01:12:49;;;;;;;10.93;6.43;;;;;;;21.23;56.29;100388.63;4768879;30;20085;-58
2021/07/08 01:15:15;;;;;;;11.25;6.30;;;;;;;21.20;56.13;100390.63;4767456;30;20043;-58
2021/07/08 01:17:43;;;;;;;11.80;6.32;;;;;;;21.20;55.75;100394.09;4769273;29;20048;-59
2021/07/08 01:20:10;;;;;;;13.20;6.82;;;;;;;21.18;56.02;100393.38;4769262;30;20500;-59
2021/07/08 01:22:36;;;;;;;8.55;6.03;;;;;;;21.12;56.25;100397.25;4768887;30;20657;-58
2021/07/08 01:25:04;;;;;;;12.27;6.55;;;;;;;21.08;56.48;100398.41;4769093;29;20052;-58
2021/07/08 01:27:31;;;;;;;14.90;6.47;;;;;;;21.05;56.98;100395.09;4769004;30;20047;-59
2021/07/08 01:29:58;;;;;;;15.35;7.25;;;;;;;21.04;57.01;100394.25;4753382;30;20523;-59
2021/07/08 01:32:24;;;;;;;15.18;6.55;;;;;;;21.05;57.29;100406.50;4768921;29;20051;-58
2021/07/08 01:34:50;;;;;;;14.75;6.88;;;;;;;21.08;57.01;100413.41;4768961;30;20053;-58
2021/07/08 01:37:17;;;;;;;13.10;6.70;;;;;;;21.07;56.74;100401.97;4782934;29;20596;-59
2021/07/08 01:39:46;;;;;;;11.10;6.30;;;;;;;21.08;56.51;100401.03;4768851;29;20127;-58
2021/07/08 01:42:12;;;;;;;;;;;;;;;21.07;56.62;100404.63;4768946;29;20528;-58
2021/07/08 01:44:37;;;;;;;8.27;5.63;;;;;;;21.07;57.33;100403.78;4768612;29;19925;-59
2021/07/08 01:47:03;;;;;;;14.77;6.32;;;;;;;21.06;57.23;100408.22;4768766;30;20478;-62
2021/07/08 01:49:29;;;;;;;17.85;6.93;;;;;;;21.04;57.67;100410.09;4752667;30;20047;-57
2021/07/08 01:51:55;;;;;;;15.98;7.70;;;;;;;21.04;58.18;100404.00;4768646;29;20563;-59
2021/07/08 01:54:21;;;;;;;12.43;8.05;;;;;;;21.02;57.90;100405.88;4768883;30;20044;-60
2021/07/08 01:56:47;;;;;;;17.83;7.88;;;;;;;21.02;57.96;100405.88;4768476;29;20048;-57
2021/07/08 01:59:14;;;;;;;11.63;7.43;;;;;;;21.02;58.14;100408.53;4768619;30;20054;-57
2021/07/08 02:01:40;;;;;;;13.40;7.85;;;;;;;20.99;57.89;100406.06;4768624;30;20047;-60
2021/07/08 02:04:05;;;;;;;14.70;7.07;;;;;;;20.98;57.69;100401.75;4768808;30;20401;-59
2021/07/08 02:06:31;;;;;;;12.35;7.35;;;;;;;20.98;57.85;100397.31;4782181;29;20523;-59
2021/07/08 02:08:58;;;;;;;16.17;8.32;;;;;;;20.97;58.72;100398.25;4768412;29;20915;-58
2021/07/08 02:11:23;;;;;;;11.60;7.70;;;;;;;20.99;58.77;100401.63;4768374;30;20067;-60
2021/07/08 02:13:49;;;;;;;14.13;6.75;;;;;;;21.00;58.18;100399.84;4768282;30;20078;-58
2021/07/08 02:16:15;;;;;;;13.57;7.25;;;;;;;21.04;58.25;100401.34;4767326;29;20130;-58
2021/07/08 02:18:42;;;;;;;15.65;7.93;;;;;;;21.04;58.63;100394.25;4768224;30;20189;-58
2021/07/08 02:21:09;;;;;;;13.82;6.88;;;;;;;21.05;58.31;100403.03;4768339;30;20047;-59
2021/07/08 02:23:36;;;;;;;17.40;7.78;;;;;;;21.06;58.39;100396.78;4768141;29;20072;-59
2021/07/08 02:26:03;;;;;;;14.55;6.90;;;;;;;21.09;58.07;100401.91;4767992;30;20055;-59
2021/07/08 02:28:29;;;;;;;13.55;7.13;;;;;;;21.11;58.16;100405.25;4752475;30;20055;-59
2021/07/08 02:30:55;;;;;;;13.60;7.30;;;;;;;21.12;57.73;100402.53;4768551;29;20131;-59
2021/07/08 02:33:23;;;;;;;12.15;7.07;;;;;;;21.14;57.62;100403.28;4768228;29;20059;-58
2021/07/08 02:35:48;;;;;;;12.10;7.00;;;;;;;21.17;57.66;100414.63;4768094;30;20058;-58
2021/07/08 02:38:14;;;;;;;10.55;6.50;;;;;;;21.20;57.34;100409.97;4768466;29;20520;-59
2021/07/08 02:40:41;;;;;;;12.15;7.07;;;;;;;21.25;57.27;100407.03;4767934;30;20539;-62
2021/07/08 02:43:07;;;;;;;13.43;6.90;;;;;;;21.27;57.20;100413.91;4768254;30;20052;-59
2021/07/08 02:45:35;;;;;;;13.98;6.65;;;;;;;21.31;57.35;100415.38;4767917;30;20130;-59
2021/07/08 02:48:03;;;;;;;14.30;7.03;;;;;;;21.29;57.57;100416.47;4768311;30;20071;-58
2021/07/08 02:50:30;;;;;;;16.17;6.57;;;;;;;21.31;56.97;100410.09;4768044;29;20097;-59
2021/07/08 02:52:56;;;;;;;9.65;5.57;;;;;;;21.35;55.49;100416.06;4767937;30;20043;-58
2021/07/08 02:55:22;;;;;;;7.25;5.25;;;;;;;21.38;55.14;100419.34;4768206;29;20073;-58
2021/07/08 02:57:48;;;;;;;10.70;5.57;;;;;;;21.43;54.96;100421.66;4768031;30;20097;-58
2021/07/08 03:00:20;;;;;;;12.20;5.97;;;;;;;21.46;54.97;100419.66;4751949;30;20048;-59
2021/07/08 03:02:45;;;;;;;12.45;5.18;;;;;;;21.47;54.99;100420.50;4767988;29;20095;-58
2021/07/08 03:05:12;;;;;;;8.75;5.63;;;;;;;21.49;55.00;100415.97;4752062;30;20051;-58
2021/07/08 03:07:38;;;;;;;8.88;5.47;;;;;;;21.51;55.04;100414.88;4767794;29;20105;-57
2021/07/08 03:10:15;;;;;;;10.20;5.57;;;;;;;21.55;54.96;100418.19;4767660;30;20051;-57
2021/07/08 03:12:41;;;;;;;7.40;5.47;;;;;;;21.56;55.00;100419.91;4767650;30;20051;-57
2021/07/08 03:15:08;;;;;;;13.20;5.47;;;;;;;21.56;55.54;100415.44;4767788;30;20048;-56
2021/07/08 03:17:35;;;;;;;14.80;5.40;;;;;;;21.61;55.54;100416.94;4767696;30;20064;-59
2021/07/08 03:20:01;;;;;;;10.68;6.32;;;;;;;21.67;55.54;100421.81;4752022;30;20047;-58
2021/07/08 03:22:27;;;;;;;11.85;5.45;;;;;;;21.69;55.51;100420.75;4767601;30;20052;-57
2021/07/08 03:24:53;;;;;;;10.23;5.82;;;;;;;21.71;55.58;100418.00;4771619;30;20044;-57
2021/07/08 03:27:18;;;;;;;12.48;5.55;;;;;;;21.75;55.45;100417.69;4771410;30;20512;-58
2021/07/08 03:29:44;;;;;;;12.95;6.03;;;;;;;21.78;55.55;100413.94;4771132;30;20050;-59
2021/07/08 03:32:10;;;;;;;10.88;5.60;;;;;;;21.81;55.30;100427.84;4771297;30;20044;-58
2021/07/08 03:34:36;;;;;;;8.75;5.38;;;;;;;21.83;55.06;100422.44;4771229;29;20051;-58
2021/07/08 03:37:02;;;;;;;14.52;5.40;;;;;;;21.83;54.50;100417.13;4770850;30;20435;-59
2021/07/08 03:39:28;;;;;;;11.75;5.38;;;;;;;21.86;54.26;100420.44;4770889;30;20185;-58
2021/07/08 03:41:53;;;;;;;9.95;5.07;;;;;;;21.90;53.94;100421.06;4771104;30;20044;-60
2021/07/08 03:44:19;;;;;;;7.97;4.78;;;;;;;21.95;54.04;100421.63;4754798;30;20105;-58
2021/07/08 03:46:45;;;;;;;10.20;4.75;;;;;;;22.00;53.77;100416.84;4770744;29;20578;-61
2021/07/08 03:49:11;;;;;;;7.25;5.20;;;;;;;22.07;53.09;100426.06;4771060;30;20131;-59
2021/07/08 03:51:38;;;;;;;8.55;4.63;;;;;;;22.11;53.36;100414.28;4770415;29;20528;-58
2021/07/08 03:54:03;;;;;;;8.43;4.80;;;;;;;22.17;53.08;100418.31;4770568;30;20040;-58
2021/07/08 03:56:29;;;;;;;10.15;5.22;;;;;;;22.22;52.61;100411.75;4754504;30;20059;-58
2021/07/08 03:58:55;;;;;;;8.70;4.60;;;;;;;22.29;52.96;100413.00;4770932;29;20052;-58
2021/07/08 04:01:20;;;;;;;9.82;4.57;;;;;;;22.33;52.52;100410.97;4779221;29;20404;-58
2021/07/08 04:03:46;;;;;;;7.90;4.97;;;;;;;22.39;52.80;100414.03;4787884;29;20051;-57
2021/07/08 04:06:12;;;;;;;8.50;4.43;;;;;;;22.45;52.54;100411.91;4787791;29;20083;-57
2021/07/08 04:08:37;;;;;;;6.85;4.45;;;;;;;22.50;53.15;100410.63;4771452;29;20071;-57
2021/07/08 04:14:08;;;;;;;7.50;3.97;;;;;;;22.67;52.89;100422.63;4733253;30;20616;-57
2021/07/08 04:16:34;;;;;;;10.75;5.15;;;;;;;22.70;53.49;100412.66;4738680;30;20070;-58
2021/07/08 04:19:00;;;;;;;8.15;4.30;;;;;;;22.76;52.56;100419.38;4733560;30;20463;-58
2021/07/08 04:21:26;;;;;;;9.18;4.47;;;;;;;22.82;52.31;100418.06;4736902;30;20417;-57
2021/07/08 04:23:51;;;;;;;8.65;4.30;;;;;;;22.86;52.04;100416.88;4739638;30;20048;-57
2021/07/08 04:26:18;;;;;;;8.73;4.30;;;;;;;22.95;52.14;100422.34;4738002;30;20590;-58
2021/07/08 04:28:44;;;;;;;12.52;4.82;;;;;;;23.01;51.40;100415.75;4737206;30;20098;-58
2021/07/08 04:31:42;;;;;;;11.65;4.60;;;;;;;23.03;51.84;100427.09;5143257;24;20045;31
2021/07/08 04:34:07;;;;;;;8.10;4.40;;;;;;;23.04;52.10;100434.94;4709161;30;20186;-58
2021/07/08 04:36:33;;;;;;;10.05;4.80;;;;;;;23.10;52.14;100426.50;4712622;30;20608;-58
2021/07/08 04:38:59;;;;;;;8.02;5.32;;;;;;;23.15;51.79;100426.16;4712013;30;20074;-58
2021/07/08 04:44:20;;;;;;;11.98;4.70;;;;;;;23.20;51.97;100424.88;4949001;24;20158;-60
2021/07/08 04:46:46;;;;;;;9.07;4.88;;;;;;;23.27;51.82;100422.59;4783458;29;20133;-57
2021/07/08 04:49:12;;;;;;;10.95;4.85;;;;;;;23.33;52.07;100421.31;4782593;29;20133;-58
2021/07/08 04:51:38;;;;;;;11.57;5.43;;;;;;;23.38;52.56;100424.44;4767369;29;21040;-57
2021/07/08 04:54:03;;;;;;;14.13;5.40;;;;;;;23.44;52.24;100426.66;4782091;29;20058;-59
2021/07/08 04:56:29;;;;;;;9.25;4.65;;;;;;;23.49;52.53;100421.88;4781608;29;20058;-57
2021/07/08 04:58:54;;;;;;;8.20;4.53;;;;;;;23.58;52.58;100419.34;4782307;29;20060;-58
2021/07/08 05:01:20;;;;;;;14.57;4.80;;;;;;;23.67;51.99;100423.09;4782934;29;20557;-57
2021/07/08 05:03:46;;;;;;;8.10;4.63;;;;;;;23.75;52.15;100426.03;5245573;24;20071;-57
2021/07/08 05:06:11;;;;;;;13.20;5.05;;;;;;;23.84;52.08;100430.63;4784540;29;20138;-56
2021/07/08 05:08:37;;;;;;;11.90;5.18;;;;;;;23.92;51.84;100433.50;4786974;29;20043;-58
2021/07/08 05:11:03;;;;;;;10.15;5.10;;;;;;;23.98;51.60;100435.69;4787141;30;20071;-56
2021/07/08 05:13:28;;;;;;;10.60;6.78;;;;;;;24.03;50.95;100430.88;4771982;29;20192;-56
2021/07/08 05:15:54;;;;;;;9.60;5.55;;;;;;;24.11;50.93;100430.28;4771515;29;20507;-56
2021/07/08 05:18:20;;;;;;;9.48;5.05;;;;;;;24.19;50.79;100435.00;4784721;29;20051;-55
2021/07/08 05:20:45;;;;;;;16.35;5.38;;;;;;;24.27;50.00;100435.25;4786735;29;20134;-57
2021/07/08 05:23:16;;;;;;;10.10;5.18;;;;;;;24.33;50.24;100430.31;4772223;29;20481;-57
2021/07/08 05:25:42;;;;;;;9.25;4.70;;;;;;;24.40;50.93;100439.47;4784604;29;20043;-57
2021/07/08 05:28:10;;;;;;;13.70;5.40;;;;;;;24.49;50.71;100443.22;4786636;29;20077;-62
2021/07/08 05:30:36;;;;;;;15.63;6.05;;;;;;;24.59;50.65;100441.53;4786193;29;20088;-56
2021/07/08 05:33:01;;;;;;;12.02;5.45;;;;;;;24.68;49.82;100442.59;4786036;29;20532;-56
2021/07/08 05:35:27;;;;;;;16.23;6.53;;;;;;;24.77;49.43;100442.69;4782281;29;20043;-56
2021/07/08 05:37:53;;;;;;;15.25;5.30;;;;;;;24.85;49.19;100450.91;4784463;29;20459;-56
2021/07/08 05:40:19;;;;;;;9.43;4.82;;;;;;;24.96;49.71;100441.22;4772389;29;20055;-56
2021/07/08 05:42:45;;;;;;;7.82;5.13;;;;;;;25.06;49.39;100440.34;4786290;29;20059;-56
2021/07/08 05:45:11;;;;;;;10.18;5.03;;;;;;;25.15;48.07;100442.22;4785870;29;20058;-54
2021/07/08 05:47:37;;;;;;;11.30;4.75;;;;;;;25.27;48.70;100443.88;4785872;29;20055;-56
2021/07/08 05:50:03;;;;;;;14.73;5.38;;;;;;;25.39;48.75;100443.81;4785952;29;20051;-56
2021/07/08 05:52:29;;;;;;;9.63;4.97;;;;;;;25.52;48.81;100448.00;4786386;29;20080;-55
2021/07/08 05:54:54;;;;;;;9.13;4.85;;;;;;;25.62;48.05;100435.63;4782234;29;20130;-55
2021/07/08 05:57:20;;;;;;;11.43;5.10;;;;;;;25.73;48.98;100438.22;4780521;29;20518;-55
2021/07/08 05:59:46;;;;;;;9.25;4.13;;;;;;;25.85;46.22;100444.31;4784396;29;20047;-55
2021/07/08 06:02:12;;;;;;;12.10;4.65;;;;;;;25.94;46.29;100440.84;4786347;29;20554;-53
2021/07/08 06:04:38;;;;;;;11.63;4.10;;;;;;;26.04;45.98;100443.56;4794194;29;20058;-56
2021/07/08 06:07:03;;;;;;;8.05;3.85;;;;;;;26.14;45.32;100439.97;4781263;29;20419;-56
2021/07/08 06:09:29;;;;;;;5.32;4.18;;;;;;;26.24;45.10;100447.19;4780334;29;20387;-56
2021/07/08 06:11:55;;;;;;;10.40;3.92;;;;;;;26.32;44.86;100436.72;4790297;29;20092;-56
2021/07/08 06:14:20;;;;;;;10.85;4.55;;;;;;;26.40;45.45;100443.06;4770074;29;20050;-56
2021/07/08 06:16:46;;;;;;;8.45;4.22;;;;;;;26.54;45.35;100448.00;4784428;29;20422;-54
2021/07/08 06:19:12;;;;;;;10.02;4.40;;;;;;;26.70;45.23;100443.97;4801716;29;20126;-55
2021/07/08 06:21:37;;;;;;;8.75;4.60;;;;;;;26.82;45.40;100440.19;4786002;29;20050;-55
2021/07/08 06:24:04;;;;;;;8.75;3.90;;;;;;;26.94;44.02;100439.13;4791462;29;20053;-55
2021/07/08 06:26:29;;;;;;;5.30;3.60;;;;;;;27.04;43.60;100434.66;4794554;29;20074;-56
2021/07/08 06:28:55;;;;;;;8.88;3.83;;;;;;;27.18;42.98;100428.03;4789097;29;20093;-56
2021/07/08 06:31:21;;;;;;;24.05;5.95;;;;;;;27.34;42.98;100431.81;4803011;29;20467;-56
2021/07/08 06:33:47;;;;;;;16.17;4.57;;;;;;;27.52;42.36;100434.66;4800371;29;20096;-54
2021/07/08 06:36:13;;;;;;;10.32;3.58;;;;;;;27.65;41.00;100437.03;4785967;29;20403;-56
2021/07/08 06:38:39;;;;;;;9.60;4.32;;;;;;;27.81;41.15;100429.25;4785739;29;20535;-56
2021/07/08 06:41:04;;;;;;;17.17;4.35;;;;;;;28.06;41.02;100425.94;4785895;30;20054;-56
2021/07/08 06:43:30;;;;;;;8.73;3.88;;;;;;;28.34;39.30;100431.34;4798413;29;20526;-57
2021/07/08 06:45:56;;;;;;;12.50;4.00;;;;;;;28.77;39.53;100433.38;4782214;29;20075;-56
2021/07/08 06:48:21;;;;;;;32.42;6.53;;;;;;;29.35;38.47;100439.16;4781095;29;20649;-57
2021/07/08 06:50:47;;;;;;;9.23;4.10;;;;;;;30.24;36.31;100439.78;4783359;29;20047;-56
2021/07/08 06:53:13;;;;;;;7.30;3.60;;;;;;;30.99;33.57;100441.56;4801274;29;20050;-56
2021/07/08 06:55:39;;;;;;;7.40;4.40;;;;;;;31.78;32.82;100446.31;4785751;30;20055;-57
2021/07/08 06:58:05;;;;;;;11.88;4.10;;;;;;;32.13;31.47;100446.97;4792880;29;20046;-57
2021/07/08 07:00:37;;;;;;;4.55;3.75;;;;;;;33.02;30.11;100447.38;4807640;29;20129;-57
2021/07/08 07:03:03;;;;;;;9.07;4.20;;;;;;;33.95;28.60;100445.28;4807136;29;20090;-57
2021/07/08 07:05:30;;;;;;;13.32;4.22;;;;;;;35.03;28.18;100450.00;4806677;29;20070;-57
2021/07/08 07:07:56;;;;;;;8.98;3.90;;;;;;;35.78;26.29;100444.06;4791644;29;20096;-57
2021/07/08 07:10:23;;;;;;;8.13;4.20;;;;;;;36.50;25.14;100453.44;4789558;29;20055;-58
2021/07/08 07:12:50;;;;;;;7.63;3.92;;;;;;;37.22;23.94;100452.88;4796555;29;20050;-57
2021/07/08 07:15:17;;;;;;;10.23;3.80;;;;;;;37.45;22.74;100452.47;4793206;29;20146;-58
2021/07/08 07:17:44;;;;;;;7.20;3.60;;;;;;;37.83;22.10;100455.41;4793196;29;20051;-58
2021/07/08 07:20:11;;;;;;;4.55;3.83;;;;;;;38.70;20.93;100462.28;4797856;29;20142;-58
2021/07/08 07:22:37;;;;;;;7.70;3.55;;;;;;;39.11;20.05;100459.13;4807321;29;20055;-57
2021/07/08 07:25:05;;;;;;;6.15;3.42;;;;;;;38.35;20.63;100459.06;5251113;24;20912;-56
2021/07/08 07:27:31;;;;;;;4.35;2.72;;;;;;;36.44;22.32;100451.53;4803458;29;20050;-57
2021/07/08 07:30:02;;;;;;;11.27;3.50;;;;;;;34.75;24.32;100452.63;4789381;29;20051;-57
2021/07/08 07:32:28;;;;;;;7.65;3.40;;;;;;;33.76;26.20;100451.19;4806981;29;20418;-56
2021/07/08 07:34:54;;;;;;;8.43;4.35;;;;;;;33.11;27.40;100450.84;4805414;29;20072;-57
2021/07/08 07:37:20;;;;;;;16.83;4.40;;;;;;;33.88;26.93;100446.19;4806932;29;20051;-57
2021/07/08 07:39:46;;;;;;;17.55;4.72;;;;;;;35.44;25.10;100451.03;4806652;29;20058;-57
2021/07/08 07:42:12;;;;;;;22.02;6.65;;;;;;;36.38;24.10;100446.94;4805397;29;20046;-57
2021/07/08 07:44:43;;;;;;;316.65;46.22;;;;;;;35.79;24.87;100448.44;4806660;29;20050;-57
2021/07/08 07:47:09;;;;;;;104.05;16.52;;;;;;;34.75;26.33;100449.91;4806535;29;20053;-58
2021/07/08 07:49:34;;;;;;;56.72;10.57;;;;;;;33.90;27.90;100436.91;4806441;29;20067;-57
2021/07/08 07:52:00;;;;;;;101.00;14.73;;;;;;;34.67;26.45;100442.72;4806455;29;20163;-56
2021/07/08 07:54:26;;;;;;;15.48;4.80;;;;;;;35.62;25.01;100445.16;4806604;29;20447;-57
2021/07/08 07:56:52;;;;;;;9.05;4.32;;;;;;;35.84;23.64;100446.81;4806414;29;20050;-57
2021/07/08 07:59:17;;;;;;;6.88;4.13;;;;;;;35.77;22.95;100432.41;4804997;29;20047;-57
2021/07/08 08:01:43;;;;;;;12.43;5.25;;;;;;;35.04;24.32;100439.00;4806128;29;20105;-59
2021/07/08 08:04:08;;;;;;;351.77;44.10;;;;;;;34.25;26.08;100435.34;4806370;29;20046;-57
2021/07/08 08:09:18;;;;;;;66.78;12.85;;;;;;;33.13;27.77;100433.47;4806053;29;20050;-56
2021/07/08 08:11:44;;;;;;;63.30;11.73;;;;;;;32.82;28.53;100439.94;4806175;29;20051;-57
2021/07/08 08:14:10;;;;;;;109.03;15.90;;;;;;;34.25;27.30;100437.19;4806315;29;20587;-58
2021/07/08 08:16:36;;;;;;;114.78;17.27;;;;;;;36.35;24.37;100438.38;4789948;29;20051;-57
2021/07/08 08:19:02;;;;;;;83.45;13.45;;;;;;;38.24;22.01;100443.44;4805917;29;20423;-58
2021/07/08 08:21:27;;;;;;;43.10;9.30;;;;;;;39.39;20.79;100454.16;4806263;29;20102;-57
2021/07/08 08:23:53;;;;;;;9.43;4.63;;;;;;;39.11;20.48;100450.97;4806293;29;20456;-57
2021/07/08 08:26:19;;;;;;;10.52;5.22;;;;;;;37.44;21.83;100445.38;4798461;29;20128;-58
2021/07/08 08:28:45;;;;;;;10.50;4.63;;;;;;;38.21;20.90;100450.09;4787710;30;20107;-58
2021/07/08 08:31:10;;;;;;;33.33;7.93;;;;;;;39.63;19.97;100456.03;4788168;30;20116;-58
2021/07/08 08:33:36;;;;;;;19.60;5.13;;;;;;;40.51;18.88;100450.34;4792100;29;20077;-58
2021/07/08 08:36:03;;;;;;;15.55;5.18;;;;;;;40.11;19.14;100444.47;4789455;29;20422;-57
2021/07/08 08:38:28;;;;;;;8.88;4.80;;;;;;;41.28;18.44;100443.16;4805875;29;20043;-57
2021/07/08 08:40:56;;;;;;;12.25;4.85;;;;;;;42.05;17.13;100444.78;4805505;29;20043;-57
2021/07/08 08:43:21;;;;;;;6.13;4.60;;;;;;;42.43;16.54;100451.63;4805448;29;20050;-57
2021/07/08 08:45:48;;;;;;;9.85;5.05;;;;;;;43.22;16.70;100447.97;4805497;29;20050;-59
2021/07/08 08:48:13;;;;;;;7.60;5.72;;;;;;;44.12;16.05;100444.16;4805660;29;20515;-58
2021/07/08 08:50:41;;;;;;;9.10;6.03;;;;;;;44.27;15.37;100447.13;4805374;29;20111;-58
2021/07/08 08:53:08;;;;;;;15.82;6.60;;;;;;;44.60;14.49;100448.88;4805276;29;20039;-57
2021/07/08 08:55:35;;;;;;;16.15;6.40;;;;;;;44.36;15.28;100437.38;4805456;29;20046;-57
2021/07/08 08:58:20;;;;;;;7.40;5.10;;;;;;;44.60;14.64;100446.13;4805423;29;20047;-57
2021/07/08 09:00:56;;;;;;;7.10;5.65;;;;;;;45.22;14.46;100442.97;4799407;29;20047;-58
2021/07/08 09:03:26;;;;;;;6.72;5.47;;;;;;;45.97;14.28;100439.94;4804736;29;20082;-58
2021/07/08 09:06:09;;;;;;;11.52;8.70;;;;;;;46.54;14.00;100436.38;4805182;29;20127;-57
2021/07/08 09:08:45;;;;;;;5.95;5.32;;;;;;;46.61;13.26;100439.69;4805035;29;20050;-58
2021/07/08 09:11:18;;;;;;;12.00;5.90;;;;;;;46.25;13.62;100442.31;4805217;29;20055;-58
2021/07/08 09:14:06;;;;;;;8.10;5.60;;;;;;;46.10;13.25;100430.41;4805305;29;20062;-57
2021/07/08 09:16:34;;;;;;;6.47;5.88;;;;;;;46.21;13.48;100429.38;4805108;29;20047;-57
2021/07/08 09:19:06;;;;;;;6.28;5.47;;;;;;;46.33;13.99;100436.28;4804927;29;20502;-58
2021/07/08 09:21:37;;;;;;;7.30;5.78;;;;;;;46.42;13.75;100431.09;4804424;29;20403;-58
2021/07/08 09:24:23;;;;;;;6.68;6.00;;;;;;;47.17;13.21;100435.09;4804569;29;20047;-57
2021/07/08 09:27:07;;;;;;;;;;;;;;;47.59;12.89;100429.31;4794985;29;20511;-58
2021/07/08 09:29:36;;;;;;;15.15;10.55;;;;;;;47.92;13.40;100431.44;4787164;30;19926;-58
2021/07/08 09:32:11;;;;;;;6.85;6.15;;;;;;;47.99;12.82;100425.66;4786943;29;20567;-58
2021/07/08 09:34:39;;;;;;;10.25;6.40;;;;;;;47.59;12.60;100430.13;4798350;29;20046;-58
2021/07/08 09:37:08;;;;;;;10.18;6.20;;;;;;;46.77;13.13;100427.63;4788289;29;20072;-58
2021/07/08 09:39:45;;;;;;;11.75;5.85;;;;;;;45.93;13.32;100419.59;4804452;29;20058;-58
2021/07/08 09:42:13;;;;;;;7.53;6.65;;;;;;;46.48;13.60;100416.22;4804910;29;20046;-57
2021/07/08 09:44:39;;;;;;;10.85;5.00;;;;;;;45.22;14.01;100410.84;4804498;29;20540;-57
2021/07/08 09:47:18;;;;;;;5.75;4.70;;;;;;;43.58;15.81;100411.03;4804535;29;20058;-57
2021/07/08 09:49:45;;;;;;;8.55;5.93;;;;;;;42.62;16.72;100406.59;4804340;29;20058;-57
2021/07/08 09:52:11;;;;;;;13.27;6.20;;;;;;;43.18;16.79;100403.00;4804646;29;20601;-58
2021/07/08 09:57:46;;;;;;;9.98;6.70;;;;;;;45.82;15.03;100393.13;4804223;29;20062;-58
2021/07/08 10:00:22;;;;;;;6.78;6.28;;;;;;;46.66;14.01;100403.94;4804326;29;20461;-59
2021/07/08 10:02:50;;;;;;;7.68;6.00;;;;;;;46.45;13.14;100399.44;4804382;29;20053;-58
2021/07/08 10:05:16;;;;;;;7.93;6.63;;;;;;;46.56;13.73;100410.25;4804224;29;20145;-57
2021/07/08 10:07:43;;;;;;;6.32;5.72;;;;;;;46.72;13.40;100402.84;4804687;29;20534;-61
2021/07/08 10:10:09;;;;;;;7.63;5.97;;;;;;;46.42;13.38;100394.50;4804336;29;20042;-58
2021/07/08 10:12:37;;;;;;;8.93;6.13;;;;;;;45.84;13.79;100390.97;4804145;29;20529;-57
2021/07/08 10:15:06;;;;;;;9.00;6.32;;;;;;;46.41;13.83;100392.84;4803739;29;20424;-58
2021/07/08 10:17:33;;;;;;;10.52;7.00;;;;;;;47.21;13.17;100391.31;4804377;29;20051;-58
2021/07/08 10:20:02;;;;;;;5.28;4.78;;;;;;;46.80;13.48;100393.22;4804338;29;20046;-58
2021/07/08 10:22:28;;;;;;;9.20;7.47;;;;;;;45.85;14.03;100390.66;4804097;29;20453;-59
2021/07/08 10:24:53;;;;;;;7.82;6.50;;;;;;;46.34;13.87;100393.91;5233741;24;20077;-57
2021/07/08 10:27:20;;;;;;;9.10;6.20;;;;;;;47.08;13.21;100395.44;4801300;29;20057;-58
2021/07/08 10:29:46;;;;;;;9.00;8.20;;;;;;;47.70;13.54;100388.78;4803232;29;20054;-57
2021/07/08 10:32:13;;;;;;;15.23;9.97;;;;;;;48.15;12.88;100387.81;4787012;29;20143;-59
2021/07/08 10:34:45;;;;;;;12.57;8.15;;;;;;;48.59;12.20;100388.66;4772286;29;20091;-60
2021/07/08 10:37:32;;;;;;;13.88;12.45;;;;;;;48.80;12.43;100390.19;4803889;29;20050;-58
2021/07/08 10:39:58;;;;;;;8.85;6.50;;;;;;;48.88;11.68;100387.94;4803829;29;20078;-57
2021/07/08 10:42:49;;;;;;;6.10;4.53;;;;;;;47.23;12.93;100383.59;4803266;29;20107;-59
2021/07/08 10:45:21;;;;;;;6.03;4.57;;;;;;;44.91;14.86;100373.22;4795154;29;20058;-58
2021/07/08 10:47:48;;;;;;;5.53;4.47;;;;;;;43.01;15.50;100361.06;4782184;29;20400;-57
2021/07/08 10:50:33;;;;;;;7.03;5.32;;;;;;;42.93;16.03;100364.19;4781808;29;20628;-57
2021/07/08 10:53:23;;;;;;;11.55;7.82;;;;;;;44.65;15.24;100367.47;4781743;29;20051;-58
2021/07/08 10:56:04;;;;;;;16.65;10.57;;;;;;;45.99;14.42;100365.44;4779412;29;20178;-57
2021/07/08 10:58:51;;;;;;;9.30;6.28;;;;;;;47.03;13.46;100373.41;4781923;29;20116;-57
2021/07/08 11:01:23;;;;;;;7.60;6.65;;;;;;;47.60;13.24;100381.34;4782624;29;20054;-59
2021/07/08 11:03:50;;;;;;;11.07;8.13;;;;;;;47.23;13.08;100375.31;4780828;29;20520;-57
2021/07/08 11:06:21;;;;;;;6.97;6.22;;;;;;;47.29;12.74;100365.97;4781730;29;20584;-57
2021/07/08 11:08:51;;;;;;;9.68;6.03;;;;;;;46.41;13.03;100368.06;4787654;29;20129;-57
2021/07/08 11:11:23;;;;;;;7.28;6.50;;;;;;;46.73;13.10;100361.28;4797440;29;20082;-57
2021/07/08 11:13:53;;;;;;;7.18;6.30;;;;;;;47.13;12.48;100365.97;4788733;29;20067;-58
2021/07/08 11:16:44;;;;;;;18.65;9.13;;;;;;;47.63;12.10;100364.28;5252018;24;20066;-58
2021/07/08 11:19:25;;;;;;;7.72;6.55;;;;;;;47.43;12.61;100348.59;4782367;29;20055;-58
2021/07/08 11:21:51;;;;;;;8.07;6.57;;;;;;;47.68;12.71;100360.69;4798600;29;20043;-57
2021/07/08 11:24:18;;;;;;;15.07;7.80;;;;;;;47.90;12.52;100353.69;4799483;29;20128;-59
2021/07/08 11:26:57;;;;;;;5.40;4.70;;;;;;;46.81;12.63;100345.28;4795422;29;20062;-56
2021/07/08 11:29:33;;;;;;;7.03;4.10;;;;;;;44.57;14.19;100337.72;4798628;29;20049;-58
2021/07/08 11:32:00;;;;;;;12.82;5.78;;;;;;;43.06;16.12;100339.25;4798112;29;20051;-58
2021/07/08 11:34:27;;;;;;;6.05;4.60;;;;;;;42.45;17.43;100335.41;4782800;29;20050;-57